Load, Kentucky
Current Conditions -  °F | °C
As of 4:55 PM on Monday 22 Dec 2014 (Local Time) from KDWU Reporting Station
Scattered Clouds Scattered Clouds  
Wind Chill: 44°   Ceiling: Unl
Heat Index: 48°   Visibility: 10mi
Dew Point: 37°   Wind: 10mph
Humidity: 66%   Direction: 120°ESE
Pressure: 29.83"   Gusts: NA
Location:  38.5266°N, 82.9452°W
Report Text: KDWU 222155Z AUTO 12009KT 10SM SCT110 09/03 A2983 RMK AO1
Loading
Personal Weather Stations






























Interactive Weather Map New forecast layout! Learn more

10-Day Weather Forecast

Advertisements
Track Severe Weather on mobile